sensor_id;sensor_type;location;lat;lon;timestamp;pressure;altitude;pressure_sealevel;temperature;humidity
40850;BME280;26571;41.610;25.380;2023-01-23T00:01:44;99039.34;;;11.10;100.00
40850;BME280;26571;41.610;25.380;2023-01-23T00:04:12;99042.63;;;11.12;100.00
40850;BME280;26571;41.610;25.380;2023-01-23T00:06:38;99038.88;;;11.15;100.00
40850;BME280;26571;41.610;25.380;2023-01-23T00:09:05;98998.69;;;10.86;100.00
40850;BME280;26571;41.610;25.380;2023-01-23T00:11:31;99012.50;;;10.88;100.00
40850;BME280;26571;41.610;25.380;2023-01-23T00:13:58;99043.47;;;11.12;100.00
40850;BME280;26571;41.610;25.380;2023-01-23T00:16:26;99044.66;;;11.18;100.00
40850;BME280;26571;41.610;25.380;2023-01-23T00:18:55;99044.50;;;11.20;100.00
40850;BME280;26571;41.610;25.380;2023-01-23T00:21:23;99038.97;;;11.05;100.00
40850;BME280;26571;41.610;25.380;2023-01-23T00:23:53;99040.34;;;11.09;100.00
40850;BME280;26571;41.610;25.380;2023-01-23T00:26:21;99047.00;;;11.03;100.00
40850;BME280;26571;41.610;25.380;2023-01-23T00:28:47;99041.75;;;11.03;100.00
40850;BME280;26571;41.610;25.380;2023-01-23T00:31:16;99029.38;;;10.96;100.00
40850;BME280;26571;41.610;25.380;2023-01-23T00:33:43;99050.97;;;10.99;100.00
40850;BME280;26571;41.610;25.380;2023-01-23T00:36:10;99060.00;;;10.97;100.00
40850;BME280;26571;41.610;25.380;2023-01-23T00:38:36;99051.47;;;11.03;100.00
40850;BME280;26571;41.610;25.380;2023-01-23T00:41:02;99048.56;;;10.88;100.00
40850;BME280;26571;41.610;25.380;2023-01-23T00:43:28;99047.69;;;10.79;100.00
40850;BME280;26571;41.610;25.380;2023-01-23T00:45:54;99044.56;;;10.84;100.00
40850;BME280;26571;41.610;25.380;2023-01-23T00:48:20;99049.47;;;10.79;100.00
40850;BME280;26571;41.610;25.380;2023-01-23T00:50:46;99048.44;;;10.90;100.00
40850;BME280;26571;41.610;25.380;2023-01-23T00:53:12;99050.72;;;10.93;100.00
40850;BME280;26571;41.610;25.380;2023-01-23T00:55:38;99050.91;;;10.91;100.00
40850;BME280;26571;41.610;25.380;2023-01-23T00:58:03;99050.53;;;10.86;100.00
40850;BME280;26571;41.610;25.380;2023-01-23T01:00:29;99048.81;;;10.77;100.00
40850;BME280;26571;41.610;25.380;2023-01-23T01:02:54;99052.59;;;10.74;100.00
40850;BME280;26571;41.610;25.380;2023-01-23T01:05:20;99018.50;;;10.37;100.00
40850;BME280;26571;41.610;25.380;2023-01-23T01:07:46;99062.28;;;10.56;100.00
40850;BME280;26571;41.610;25.380;2023-01-23T01:10:12;99058.00;;;10.55;100.00
40850;BME280;26571;41.610;25.380;2023-01-23T01:12:38;99054.69;;;10.53;100.00
40850;BME280;26571;41.610;25.380;2023-01-23T01:15:04;99056.56;;;10.60;100.00
40850;BME280;26571;41.610;25.380;2023-01-23T01:17:30;99054.22;;;10.75;100.00
40850;BME280;26571;41.610;25.380;2023-01-23T01:19:55;99052.88;;;10.71;100.00
40850;BME280;26571;41.610;25.380;2023-01-23T01:22:21;99060.13;;;10.69;100.00
40850;BME280;26571;41.610;25.380;2023-01-23T01:24:46;99057.00;;;10.74;100.00
40850;BME280;26571;41.610;25.380;2023-01-23T01:27:12;99062.06;;;10.67;100.00
40850;BME280;26571;41.610;25.380;2023-01-23T01:29:37;99070.31;;;10.72;100.00
40850;BME280;26571;41.610;25.380;2023-01-23T01:32:03;99056.63;;;10.86;100.00
40850;BME280;26571;41.610;25.380;2023-01-23T01:34:28;99066.72;;;10.73;100.00
40850;BME280;26571;41.610;25.380;2023-01-23T01:36:54;99066.56;;;10.57;100.00
40850;BME280;26571;41.610;25.380;2023-01-23T01:39:20;99066.13;;;10.79;100.00
40850;BME280;26571;41.610;25.380;2023-01-23T01:41:46;99063.13;;;10.74;100.00
40850;BME280;26571;41.610;25.380;2023-01-23T01:44:16;99067.84;;;10.71;100.00
40850;BME280;26571;41.610;25.380;2023-01-23T01:46:42;99063.41;;;10.71;100.00
40850;BME280;26571;41.610;25.380;2023-01-23T01:49:22;99063.84;;;10.84;100.00
40850;BME280;26571;41.610;25.380;2023-01-23T01:52:03;99050.63;;;10.76;100.00
40850;BME280;26571;41.610;25.380;2023-01-23T01:54:42;99068.69;;;10.71;100.00
40850;BME280;26571;41.610;25.380;2023-01-23T01:57:26;99064.44;;;10.78;100.00
40850;BME280;26571;41.610;25.380;2023-01-23T01:59:57;99073.03;;;10.63;100.00
40850;BME280;26571;41.610;25.380;2023-01-23T02:02:32;99076.94;;;10.76;100.00
40850;BME280;26571;41.610;25.380;2023-01-23T02:05:03;99083.63;;;10.88;100.00
40850;BME280;26571;41.610;25.380;2023-01-23T02:07:37;99042.63;;;10.68;100.00
40850;BME280;26571;41.610;25.380;2023-01-23T02:10:05;99082.41;;;11.01;100.00
40850;BME280;26571;41.610;25.380;2023-01-23T02:12:32;99087.97;;;10.98;100.00
40850;BME280;26571;41.610;25.380;2023-01-23T02:15:03;99082.06;;;10.96;100.00
40850;BME280;26571;41.610;25.380;2023-01-23T02:17:30;99097.41;;;11.00;100.00
40850;BME280;26571;41.610;25.380;2023-01-23T02:20:11;99082.72;;;10.98;100.00
40850;BME280;26571;41.610;25.380;2023-01-23T02:22:43;99088.97;;;10.97;100.00
40850;BME280;26571;41.610;25.380;2023-01-23T02:27:56;99083.25;;;11.01;100.00
40850;BME280;26571;41.610;25.380;2023-01-23T02:30:22;99087.75;;;11.09;100.00
40850;BME280;26571;41.610;25.380;2023-01-23T02:32:48;99076.06;;;11.11;100.00
40850;BME280;26571;41.610;25.380;2023-01-23T02:35:22;99075.91;;;11.13;100.00
40850;BME280;26571;41.610;25.380;2023-01-23T02:37:52;99077.41;;;10.90;100.00
40850;BME280;26571;41.610;25.380;2023-01-23T02:40:19;99075.31;;;10.75;100.00
40850;BME280;26571;41.610;25.380;2023-01-23T02:42:54;99080.69;;;10.74;100.00
40850;BME280;26571;41.610;25.380;2023-01-23T02:45:19;99087.84;;;10.81;100.00
40850;BME280;26571;41.610;25.380;2023-01-23T02:47:45;99094.03;;;10.90;100.00
40850;BME280;26571;41.610;25.380;2023-01-23T02:50:10;99085.34;;;10.98;100.00
40850;BME280;26571;41.610;25.380;2023-01-23T02:52:35;99093.63;;;11.03;100.00
40850;BME280;26571;41.610;25.380;2023-01-23T02:55:01;99096.94;;;11.05;100.00
40850;BME280;26571;41.610;25.380;2023-01-23T02:57:26;99094.97;;;11.07;100.00
40850;BME280;26571;41.610;25.380;2023-01-23T02:59:52;99100.13;;;10.91;100.00
40850;BME280;26571;41.610;25.380;2023-01-23T03:02:35;99101.22;;;10.88;100.00
40850;BME280;26571;41.610;25.380;2023-01-23T03:05:02;99095.59;;;11.01;100.00
40850;BME280;26571;41.610;25.380;2023-01-23T03:07:27;99097.25;;;11.02;100.00
40850;BME280;26571;41.610;25.380;2023-01-23T03:09:53;99095.06;;;10.97;100.00
40850;BME280;26571;41.610;25.380;2023-01-23T03:12:18;99112.44;;;11.08;100.00
40850;BME280;26571;41.610;25.380;2023-01-23T03:14:44;99104.91;;;11.13;100.00
40850;BME280;26571;41.610;25.380;2023-01-23T03:17:09;99105.22;;;11.10;100.00
40850;BME280;26571;41.610;25.380;2023-01-23T03:19:35;99122.47;;;11.04;100.00
40850;BME280;26571;41.610;25.380;2023-01-23T03:22:00;99118.31;;;11.02;100.00
40850;BME280;26571;41.610;25.380;2023-01-23T03:24:26;99115.97;;;10.99;100.00
40850;BME280;26571;41.610;25.380;2023-01-23T03:26:51;99118.72;;;10.89;100.00
40850;BME280;26571;41.610;25.380;2023-01-23T03:29:20;99107.94;;;10.82;100.00
40850;BME280;26571;41.610;25.380;2023-01-23T03:32:04;99109.38;;;10.95;100.00
40850;BME280;26571;41.610;25.380;2023-01-23T03:34:30;99116.66;;;11.01;100.00
40850;BME280;26571;41.610;25.380;2023-01-23T03:36:56;99121.31;;;11.07;100.00
40850;BME280;26571;41.610;25.380;2023-01-23T03:39:22;99120.28;;;11.00;100.00
40850;BME280;26571;41.610;25.380;2023-01-23T03:42:06;99115.31;;;10.97;100.00
40850;BME280;26571;41.610;25.380;2023-01-23T03:44:32;99118.09;;;10.95;100.00
40850;BME280;26571;41.610;25.380;2023-01-23T03:46:57;99118.41;;;10.92;100.00
40850;BME280;26571;41.610;25.380;2023-01-23T03:49:23;99117.72;;;10.90;100.00
40850;BME280;26571;41.610;25.380;2023-01-23T03:51:48;99124.41;;;11.02;100.00
40850;BME280;26571;41.610;25.380;2023-01-23T03:54:14;99121.03;;;11.10;100.00
40850;BME280;26571;41.610;25.380;2023-01-23T03:56:40;99123.50;;;11.11;100.00
40850;BME280;26571;41.610;25.380;2023-01-23T03:59:06;99122.97;;;11.08;100.00
40850;BME280;26571;41.610;25.380;2023-01-23T04:01:32;99122.31;;;11.06;100.00
40850;BME280;26571;41.610;25.380;2023-01-23T04:03:57;99112.69;;;10.97;100.00
40850;BME280;26571;41.610;25.380;2023-01-23T04:06:23;99120.78;;;11.03;100.00
40850;BME280;26571;41.610;25.380;2023-01-23T04:08:48;99121.47;;;10.87;100.00
40850;BME280;26571;41.610;25.380;2023-01-23T04:11:13;99119.22;;;10.93;100.00
40850;BME280;26571;41.610;25.380;2023-01-23T04:13:39;99115.31;;;10.97;100.00
40850;BME280;26571;41.610;25.380;2023-01-23T04:16:05;99124.41;;;11.02;100.00
40850;BME280;26571;41.610;25.380;2023-01-23T04:18:31;99121.78;;;11.02;100.00
40850;BME280;26571;41.610;25.380;2023-01-23T04:20:57;99129.84;;;11.01;100.00
40850;BME280;26571;41.610;25.380;2023-01-23T04:23:23;99127.00;;;10.94;100.00
40850;BME280;26571;41.610;25.380;2023-01-23T04:25:49;99133.38;;;11.09;100.00
40850;BME280;26571;41.610;25.380;2023-01-23T04:28:15;99142.78;;;11.12;100.00
40850;BME280;26571;41.610;25.380;2023-01-23T04:30:41;99151.41;;;11.22;100.00
40850;BME280;26571;41.610;25.380;2023-01-23T04:33:06;99150.44;;;11.23;100.00
40850;BME280;26571;41.610;25.380;2023-01-23T04:35:32;99136.50;;;11.13;100.00
40850;BME280;26571;41.610;25.380;2023-01-23T04:37:57;99156.41;;;11.25;100.00
40850;BME280;26571;41.610;25.380;2023-01-23T04:40:22;99159.69;;;11.27;100.00
40850;BME280;26571;41.610;25.380;2023-01-23T04:42:48;99169.81;;;11.14;100.00
40850;BME280;26571;41.610;25.380;2023-01-23T04:45:13;99161.22;;;11.12;100.00
40850;BME280;26571;41.610;25.380;2023-01-23T04:47:39;99162.13;;;11.03;100.00
40850;BME280;26571;41.610;25.380;2023-01-23T04:50:04;99170.78;;;11.13;100.00
40850;BME280;26571;41.610;25.380;2023-01-23T04:52:30;99168.66;;;11.17;100.00
40850;BME280;26571;41.610;25.380;2023-01-23T04:54:56;99172.81;;;11.19;100.00
40850;BME280;26571;41.610;25.380;2023-01-23T04:57:21;99176.44;;;11.00;100.00
40850;BME280;26571;41.610;25.380;2023-01-23T04:59:47;99176.28;;;11.02;100.00
40850;BME280;26571;41.610;25.380;2023-01-23T05:02:12;99172.06;;;11.09;100.00
40850;BME280;26571;41.610;25.380;2023-01-23T05:04:38;99177.09;;;11.20;100.00
40850;BME280;26571;41.610;25.380;2023-01-23T05:07:03;99176.75;;;11.15;100.00
40850;BME280;26571;41.610;25.380;2023-01-23T05:09:28;99176.81;;;11.05;100.00
40850;BME280;26571;41.610;25.380;2023-01-23T05:11:54;99183.19;;;11.03;100.00
40850;BME280;26571;41.610;25.380;2023-01-23T05:14:19;99174.91;;;10.98;100.00
40850;BME280;26571;41.610;25.380;2023-01-23T05:16:46;99172.66;;;11.03;100.00
40850;BME280;26571;41.610;25.380;2023-01-23T05:19:11;99176.28;;;11.02;100.00
40850;BME280;26571;41.610;25.380;2023-01-23T05:21:37;99188.56;;;11.11;100.00
40850;BME280;26571;41.610;25.380;2023-01-23T05:24:02;99186.91;;;11.10;100.00
40850;BME280;26571;41.610;25.380;2023-01-23T05:26:28;99199.09;;;11.11;100.00
40850;BME280;26571;41.610;25.380;2023-01-23T05:28:53;99194.56;;;11.03;100.00
40850;BME280;26571;41.610;25.380;2023-01-23T05:31:18;99199.38;;;11.08;100.00
40850;BME280;26571;41.610;25.380;2023-01-23T05:33:44;99197.06;;;11.05;100.00
40850;BME280;26571;41.610;25.380;2023-01-23T05:36:09;99192.97;;;10.93;100.00
40850;BME280;26571;41.610;25.380;2023-01-23T05:38:35;99203.84;;;10.90;100.00
40850;BME280;26571;41.610;25.380;2023-01-23T05:41:01;99159.84;;;10.27;100.00
40850;BME280;26571;41.610;25.380;2023-01-23T05:43:26;99207.97;;;10.47;100.00
40850;BME280;26571;41.610;25.380;2023-01-23T05:45:52;99203.84;;;10.44;100.00
40850;BME280;26571;41.610;25.380;2023-01-23T05:48:17;99214.88;;;10.48;100.00
40850;BME280;26571;41.610;25.380;2023-01-23T05:50:43;99208.63;;;10.49;100.00
40850;BME280;26571;41.610;25.380;2023-01-23T05:53:08;99207.38;;;10.53;100.00
40850;BME280;26571;41.610;25.380;2023-01-23T05:55:33;99222.09;;;10.46;100.00
40850;BME280;26571;41.610;25.380;2023-01-23T05:58:01;99222.38;;;10.43;100.00
40850;BME280;26571;41.610;25.380;2023-01-23T06:00:26;99225.28;;;10.49;100.00
40850;BME280;26571;41.610;25.380;2023-01-23T06:02:52;99231.75;;;10.55;100.00
40850;BME280;26571;41.610;25.380;2023-01-23T06:05:17;99228.47;;;10.43;100.00
40850;BME280;26571;41.610;25.380;2023-01-23T06:07:42;99229.63;;;10.41;100.00
40850;BME280;26571;41.610;25.380;2023-01-23T06:10:08;99230.97;;;10.45;100.00
40850;BME280;26571;41.610;25.380;2023-01-23T06:12:34;99233.91;;;10.42;100.00
40850;BME280;26571;41.610;25.380;2023-01-23T06:14:59;99225.06;;;10.33;100.00
40850;BME280;26571;41.610;25.380;2023-01-23T06:17:25;99240.59;;;10.26;100.00
40850;BME280;26571;41.610;25.380;2023-01-23T06:19:50;99244.22;;;10.25;100.00
40850;BME280;26571;41.610;25.380;2023-01-23T06:22:15;99255.41;;;10.18;100.00
40850;BME280;26571;41.610;25.380;2023-01-23T06:24:41;99244.06;;;10.17;100.00
40850;BME280;26571;41.610;25.380;2023-01-23T06:27:06;99255.41;;;10.18;100.00
40850;BME280;26571;41.610;25.380;2023-01-23T06:29:36;99253.19;;;10.32;100.00
40850;BME280;26571;41.610;25.380;2023-01-23T06:32:02;99273.63;;;10.48;100.00
40850;BME280;26571;41.610;25.380;2023-01-23T06:34:28;99255.03;;;10.59;100.00
40850;BME280;26571;41.610;25.380;2023-01-23T06:36:53;99227.66;;;10.43;100.00
40850;BME280;26571;41.610;25.380;2023-01-23T06:39:19;99258.88;;;10.65;100.00
40850;BME280;26571;41.610;25.380;2023-01-23T06:41:44;99263.94;;;10.76;100.00
40850;BME280;26571;41.610;25.380;2023-01-23T06:44:10;99274.25;;;10.87;100.00
40850;BME280;26571;41.610;25.380;2023-01-23T06:46:35;99284.47;;;11.00;100.00
40850;BME280;26571;41.610;25.380;2023-01-23T06:49:01;99285.88;;;10.95;100.00
40850;BME280;26571;41.610;25.380;2023-01-23T06:51:26;99290.84;;;10.98;100.00
40850;BME280;26571;41.610;25.380;2023-01-23T06:53:52;99292.38;;;11.00;100.00
40850;BME280;26571;41.610;25.380;2023-01-23T06:56:17;99291.38;;;11.01;100.00
40850;BME280;26571;41.610;25.380;2023-01-23T06:58:44;99299.81;;;11.05;100.00
40850;BME280;26571;41.610;25.380;2023-01-23T07:01:14;99296.50;;;11.03;100.00
40850;BME280;26571;41.610;25.380;2023-01-23T07:03:42;99306.53;;;11.17;100.00
40850;BME280;26571;41.610;25.380;2023-01-23T07:06:09;99301.09;;;11.19;100.00
40850;BME280;26571;41.610;25.380;2023-01-23T07:08:35;99312.78;;;11.16;100.00
40850;BME280;26571;41.610;25.380;2023-01-23T07:11:01;99306.03;;;11.04;100.00
40850;BME280;26571;41.610;25.380;2023-01-23T07:13:28;99288.25;;;10.88;100.00
40850;BME280;26571;41.610;25.380;2023-01-23T07:15:53;99311.31;;;11.04;100.00
40850;BME280;26571;41.610;25.380;2023-01-23T07:18:20;99310.84;;;10.91;100.00
40850;BME280;26571;41.610;25.380;2023-01-23T07:20:47;99267.63;;;10.56;100.00
40850;BME280;26571;41.610;25.380;2023-01-23T07:23:13;99312.00;;;10.78;100.00
40850;BME280;26571;41.610;25.380;2023-01-23T07:25:39;99299.03;;;10.67;100.00
40850;BME280;26571;41.610;25.380;2023-01-23T07:28:04;99310.78;;;10.73;100.00
40850;BME280;26571;41.610;25.380;2023-01-23T07:30:31;99309.13;;;10.72;100.00
40850;BME280;26571;41.610;25.380;2023-01-23T07:32:57;99308.13;;;10.55;100.00
40850;BME280;26571;41.610;25.380;2023-01-23T07:35:23;99277.03;;;10.21;100.00
40850;BME280;26571;41.610;25.380;2023-01-23T07:37:49;99309.22;;;10.52;100.00
40850;BME280;26571;41.610;25.380;2023-01-23T07:40:15;99296.22;;;10.51;100.00
40850;BME280;26571;41.610;25.380;2023-01-23T07:42:40;99318.56;;;10.37;100.00
40850;BME280;26571;41.610;25.380;2023-01-23T07:45:07;99311.81;;;10.25;100.00
40850;BME280;26571;41.610;25.380;2023-01-23T07:47:34;99312.91;;;10.03;100.00
40850;BME280;26571;41.610;25.380;2023-01-23T07:49:59;99323.44;;;10.03;100.00
40850;BME280;26571;41.610;25.380;2023-01-23T07:52:25;99315.78;;;10.19;100.00
40850;BME280;26571;41.610;25.380;2023-01-23T07:54:50;99313.72;;;10.32;100.00
40850;BME280;26571;41.610;25.380;2023-01-23T07:57:15;99308.59;;;10.31;100.00
40850;BME280;26571;41.610;25.380;2023-01-23T07:59:41;99316.66;;;10.10;100.00
40850;BME280;26571;41.610;25.380;2023-01-23T08:02:09;99321.78;;;10.02;100.00
40850;BME280;26571;41.610;25.380;2023-01-23T08:04:35;99323.84;;;10.08;100.00
40850;BME280;26571;41.610;25.380;2023-01-23T08:07:00;99331.63;;;10.00;100.00
40850;BME280;26571;41.610;25.380;2023-01-23T08:09:26;99326.06;;;9.93;100.00
40850;BME280;26571;41.610;25.380;2023-01-23T08:11:51;99333.13;;;10.12;100.00
40850;BME280;26571;41.610;25.380;2023-01-23T08:14:17;99331.31;;;10.22;100.00
40850;BME280;26571;41.610;25.380;2023-01-23T08:16:42;99338.53;;;10.30;100.00
40850;BME280;26571;41.610;25.380;2023-01-23T08:19:08;99351.75;;;10.48;100.00
40850;BME280;26571;41.610;25.380;2023-01-23T08:21:33;99338.97;;;10.63;100.00
40850;BME280;26571;41.610;25.380;2023-01-23T08:24:02;99337.28;;;10.71;100.00
40850;BME280;26571;41.610;25.380;2023-01-23T08:26:29;99348.00;;;10.87;100.00
40850;BME280;26571;41.610;25.380;2023-01-23T08:28:54;99346.47;;;10.95;100.00
40850;BME280;26571;41.610;25.380;2023-01-23T08:31:20;99357.09;;;11.03;100.00
40850;BME280;26571;41.610;25.380;2023-01-23T08:33:45;99348.75;;;11.07;100.00
40850;BME280;26571;41.610;25.380;2023-01-23T08:36:12;99347.03;;;11.16;100.00
40850;BME280;26571;41.610;25.380;2023-01-23T08:38:37;99349.19;;;11.30;100.00
40850;BME280;26571;41.610;25.380;2023-01-23T08:41:04;99353.09;;;11.26;100.00
40850;BME280;26571;41.610;25.380;2023-01-23T08:43:30;99341.94;;;11.32;100.00
40850;BME280;26571;41.610;25.380;2023-01-23T08:45:57;99346.94;;;11.35;100.00
40850;BME280;26571;41.610;25.380;2023-01-23T08:48:23;99344.34;;;11.44;100.00
40850;BME280;26571;41.610;25.380;2023-01-23T08:50:51;99353.34;;;11.51;100.00
40850;BME280;26571;41.610;25.380;2023-01-23T08:53:16;99351.75;;;11.58;100.00
40850;BME280;26571;41.610;25.380;2023-01-23T08:55:42;99351.31;;;11.62;100.00
40850;BME280;26571;41.610;25.380;2023-01-23T08:58:08;99355.59;;;11.46;99.48
40850;BME280;26571;41.610;25.380;2023-01-23T09:00:37;99350.09;;;11.39;99.92
40850;BME280;26571;41.610;25.380;2023-01-23T09:03:02;99355.22;;;11.41;100.00
40850;BME280;26571;41.610;25.380;2023-01-23T09:05:29;99359.59;;;11.50;100.00
40850;BME280;26571;41.610;25.380;2023-01-23T09:07:56;99357.78;;;11.50;99.08
40850;BME280;26571;41.610;25.380;2023-01-23T09:10:23;99321.84;;;11.04;100.00
40850;BME280;26571;41.610;25.380;2023-01-23T09:12:53;99351.78;;;11.12;100.00
40850;BME280;26571;41.610;25.380;2023-01-23T09:15:19;99366.72;;;11.22;100.00
40850;BME280;26571;41.610;25.380;2023-01-23T09:17:44;99352.69;;;11.21;100.00
40850;BME280;26571;41.610;25.380;2023-01-23T09:20:10;99353.16;;;11.17;100.00
40850;BME280;26571;41.610;25.380;2023-01-23T09:22:36;99341.22;;;11.12;100.00
40850;BME280;26571;41.610;25.380;2023-01-23T09:25:01;99354.13;;;11.33;100.00
40850;BME280;26571;41.610;25.380;2023-01-23T09:27:27;99328.25;;;11.29;100.00
40850;BME280;26571;41.610;25.380;2023-01-23T09:29:52;99357.69;;;11.42;100.00
40850;BME280;26571;41.610;25.380;2023-01-23T09:32:18;99347.53;;;11.47;100.00
40850;BME280;26571;41.610;25.380;2023-01-23T09:34:43;99349.56;;;11.53;99.11
40850;BME280;26571;41.610;25.380;2023-01-23T09:37:09;99321.47;;;11.26;99.88
40850;BME280;26571;41.610;25.380;2023-01-23T09:39:34;99336.84;;;11.49;99.22
40850;BME280;26571;41.610;25.380;2023-01-23T09:42:04;99317.09;;;11.35;100.00
40850;BME280;26571;41.610;25.380;2023-01-23T09:44:47;99336.16;;;11.29;99.02
40850;BME280;26571;41.610;25.380;2023-01-23T09:47:40;99332.38;;;11.31;99.69
40850;BME280;26571;41.610;25.380;2023-01-23T09:50:07;99302.41;;;11.15;100.00
40850;BME280;26571;41.610;25.380;2023-01-23T09:53:21;99333.16;;;11.42;100.00
40850;BME280;26571;41.610;25.380;2023-01-23T09:55:42;99338.31;;;11.33;99.70
40850;BME280;26571;41.610;25.380;2023-01-23T09:58:35;99293.63;;;10.96;99.92
40850;BME280;26571;41.610;25.380;2023-01-23T10:01:01;99339.81;;;11.18;99.22
40850;BME280;26571;41.610;25.380;2023-01-23T10:03:29;99334.53;;;11.18;99.29
40850;BME280;26571;41.610;25.380;2023-01-23T10:06:29;99339.38;;;11.23;100.00
40850;BME280;26571;41.610;25.380;2023-01-23T10:25:00;99333.25;;;11.50;100.00
40850;BME280;26571;41.610;25.380;2023-01-23T10:27:35;99319.06;;;11.51;99.83
40850;BME280;26571;41.610;25.380;2023-01-23T10:30:28;99318.53;;;11.65;100.00
40850;BME280;26571;41.610;25.380;2023-01-23T10:33:06;99324.19;;;11.70;100.00
40850;BME280;26571;41.610;25.380;2023-01-23T10:35:47;99319.66;;;11.80;99.18
40850;BME280;26571;41.610;25.380;2023-01-23T10:41:10;99309.50;;;11.85;99.83
40850;BME280;26571;41.610;25.380;2023-01-23T10:43:42;99317.03;;;11.80;97.82
40850;BME280;26571;41.610;25.380;2023-01-23T10:46:12;99316.03;;;11.81;97.77
40850;BME280;26571;41.610;25.380;2023-01-23T10:48:44;99307.16;;;11.82;97.88
40850;BME280;26571;41.610;25.380;2023-01-23T10:51:26;99304.53;;;11.64;97.88
40850;BME280;26571;41.610;25.380;2023-01-23T10:59:25;99311.66;;;11.72;97.85
40850;BME280;26571;41.610;25.380;2023-01-23T11:04:42;99308.38;;;11.70;98.09
40850;BME280;26571;41.610;25.380;2023-01-23T11:07:26;99312.75;;;11.79;97.37
40850;BME280;26571;41.610;25.380;2023-01-23T11:09:56;99312.56;;;11.63;97.47
40850;BME280;26571;41.610;25.380;2023-01-23T11:12:24;99316.66;;;11.75;95.02
40850;BME280;26571;41.610;25.380;2023-01-23T11:14:54;99313.69;;;11.78;95.90
40850;BME280;26571;41.610;25.380;2023-01-23T11:17:35;99312.28;;;11.66;94.83
40850;BME280;26571;41.610;25.380;2023-01-23T11:20:10;99310.72;;;11.55;95.94
40850;BME280;26571;41.610;25.380;2023-01-23T11:22:38;99308.91;;;11.56;94.82
40850;BME280;26571;41.610;25.380;2023-01-23T11:25:40;99312.16;;;11.50;98.56
40850;BME280;26571;41.610;25.380;2023-01-23T11:28:23;99308.22;;;11.54;96.15
40850;BME280;26571;41.610;25.380;2023-01-23T11:41:56;99316.94;;;11.72;94.98
40850;BME280;26571;41.610;25.380;2023-01-23T11:44:22;99312.38;;;11.74;96.50
40850;BME280;26571;41.610;25.380;2023-01-23T11:47:08;99315.81;;;11.75;94.91
40850;BME280;26571;41.610;25.380;2023-01-23T12:05:57;99315.13;;;11.19;98.06
40850;BME280;26571;41.610;25.380;2023-01-23T12:11:16;99320.91;;;11.23;95.96
40850;BME280;26571;41.610;25.380;2023-01-23T12:14:03;99315.06;;;11.29;97.15
40850;BME280;26571;41.610;25.380;2023-01-23T12:27:42;99317.78;;;11.37;95.72
40850;BME280;26571;41.610;25.380;2023-01-23T12:40:45;99328.28;;;10.64;94.88
40850;BME280;26571;41.610;25.380;2023-01-23T12:46:22;99306.13;;;10.20;100.00
40850;BME280;26571;41.610;25.380;2023-01-23T12:49:01;99327.41;;;10.46;96.65
40850;BME280;26571;41.610;25.380;2023-01-23T12:51:36;99341.84;;;10.32;97.60
40850;BME280;26571;41.610;25.380;2023-01-23T12:54:05;99271.56;;;9.86;99.16
40850;BME280;26571;41.610;25.380;2023-01-23T12:56:35;99333.50;;;10.37;99.06
40850;BME280;26571;41.610;25.380;2023-01-23T13:09:49;99344.31;;;10.33;98.13
40850;BME280;26571;41.610;25.380;2023-01-23T13:12:26;99345.16;;;10.34;97.76
40850;BME280;26571;41.610;25.380;2023-01-23T13:17:46;99304.44;;;10.09;96.27
40850;BME280;26571;41.610;25.380;2023-01-23T13:23:20;99336.69;;;10.40;98.59
40850;BME280;26571;41.610;25.380;2023-01-23T13:25:46;99337.03;;;10.65;97.50
40850;BME280;26571;41.610;25.380;2023-01-23T13:28:33;99339.25;;;10.69;94.98
40850;BME280;26571;41.610;25.380;2023-01-23T13:31:04;99347.19;;;10.50;94.76
40850;BME280;26571;41.610;25.380;2023-01-23T13:39:26;99349.25;;;10.56;95.31
40850;BME280;26571;41.610;25.380;2023-01-23T13:47:53;99345.47;;;10.68;94.76
40850;BME280;26571;41.610;25.380;2023-01-23T13:50:44;99351.41;;;10.80;92.90
40850;BME280;26571;41.610;25.380;2023-01-23T13:53:18;99356.47;;;10.91;93.80
40850;BME280;26571;41.610;25.380;2023-01-23T13:56:03;99362.34;;;11.03;92.14
40850;BME280;26571;41.610;25.380;2023-01-23T13:58:49;99339.44;;;10.85;90.83
40850;BME280;26571;41.610;25.380;2023-01-23T14:01:24;99325.66;;;10.64;92.56
40850;BME280;26571;41.610;25.380;2023-01-23T14:04:18;99355.03;;;10.69;93.41
40850;BME280;26571;41.610;25.380;2023-01-23T14:07:22;99352.44;;;10.59;93.35
40850;BME280;26571;41.610;25.380;2023-01-23T14:12:45;99359.41;;;10.78;93.49
40850;BME280;26571;41.610;25.380;2023-01-23T14:15:22;99352.47;;;10.87;92.02
40850;BME280;26571;41.610;25.380;2023-01-23T14:18:16;99368.41;;;11.13;90.91
40850;BME280;26571;41.610;25.380;2023-01-23T14:20:43;99365.50;;;11.16;93.30
40850;BME280;26571;41.610;25.380;2023-01-23T14:23:17;99362.22;;;11.32;94.15
40850;BME280;26571;41.610;25.380;2023-01-23T14:25:44;99366.88;;;11.38;94.74
40850;BME280;26571;41.610;25.380;2023-01-23T14:28:15;99366.16;;;11.46;94.67
40850;BME280;26571;41.610;25.380;2023-01-23T14:30:51;99363.06;;;11.50;94.11
40850;BME280;26571;41.610;25.380;2023-01-23T14:33:17;99354.00;;;11.53;94.44
40850;BME280;26571;41.610;25.380;2023-01-23T14:35:43;99366.31;;;11.62;94.65
40850;BME280;26571;41.610;25.380;2023-01-23T14:38:17;99368.88;;;11.72;94.11
40850;BME280;26571;41.610;25.380;2023-01-23T14:40:46;99370.59;;;11.63;94.20
40850;BME280;26571;41.610;25.380;2023-01-23T14:43:17;99321.16;;;11.29;95.00
40850;BME280;26571;41.610;25.380;2023-01-23T14:45:46;99370.81;;;11.52;95.32
40850;BME280;26571;41.610;25.380;2023-01-23T14:48:15;99362.38;;;11.48;95.20